Clio, SC (29525)

3:46 AM EDT on July 13, 2014 (GMT -0400)
Cottingham Creek (KSCBENNE4) Elev 143 ft | 34.60 °N, 79.63 °W | Change Station

Current weather conditions updated 2 minutes ago

Clear
Clear
71.6 °F
Feels Like 71.6 °F
N
0.0
Wind Variable Wind from South
Gusts 0.0 mph

Today is forecast to be nearly the same temperature as yesterday.

Today
High -- | Low -- °F
--% Chance of Precip.
Yesterday
High -- | Low -- °F
Precip. -- in
6:15 AM 8:32 PM
Full, 99% visible
Pressure 30.13 in
Visibility 10.0 miles
Clouds Clear
Dew Point 68 °F
Humidity 90%
Rainfall 0.00 in
Snow Depth Not available.
UV 0 out of 12
Pollen 2.50 out of 12
Air Quality Not available.
Flu Activity Sporadic
METAR KBBP 130735Z AUTO 00000KT 10SM CLR 22/22 A3013 RMK AO2

More Conditions Fewer Conditions

Pressure 30.13 in
Visibility 10.0 miles
Clouds Clear
Dew Point 68 °F
Humidity 90%
Rainfall 0.00 in
Snow Depth Not available.
UV 0 out of 12
Pollen 2.50 out of 12
Air Quality Not available.
Flu Activity Sporadic
METAR KBBP 130735Z AUTO 00000KT 10SM CLR 22/22 A3013 RMK AO2

More Conditions Fewer Conditions

10-Day Weather Forecast

Almanac

Astronomy

Jul. 13, 2014 Rise Set
Actual Time 6:15 AM EDT 8:32 PM EDT
Civil Twilight 5:46 AM EDT 9:01 PM EDT
Nautical Twilight 5:11 AM EDT 9:36 PM EDT
Astronomical Twilight 4:32 AM EDT 10:14 PM EDT
Moon 9:26 PM EDT 7:38 AM EDT
Length of Visible Light 15h 14m
Length of Day
14h 16m
Tomorrow will be 1m 1s shorter.
Full, 99% of the Moon is Illuminated
Today
Full
Jul 18
Last Quarter
Jul 26
New
Aug 3
First Quarter
Aug 10
Full

Today's Extremes

State Highs State Lows

Community

WunderPhotos

Upload Photos

1,733,141 photos uploaded!

Nearby

Air Quality

  Air Quality AQ Index Pollutant
Yesterday Moderate
PM2.5
Sunday Good
OZONE

Snow Depth

Station Depth Elevation
No new snow has been reported.

Earthquake Activity

City Distance Mag. Time & Date
No recent earthquake activity has been reported nearby.
Minimum magnitude displayed is 2.5.

Coastal Water Temperatures

Place Temperature
No Stations Reporting

Nearby Weather Stations

Station Location Temp. Dew Point Humidity Wind Precip. Elev Updated Type
Cottingham Creek, Bennettsville, SC 71.6 °F 68 °F 90% South  at  0.0 mph 0.00 in / hr 143 ft 3:44 AM EDT Rapid Fire
Mechanicsville, Darlington, SC 72.0 °F 71 °F 96% ESE  at  0.0 mph 0.00 in / hr 144 ft 3:46 AM EDT Rapid Fire
Cheraw, SC 70.3 °F 69 °F 97% SE  at  0.0 mph 0.00 in / hr 110 ft 3:45 AM EDT Normal
Deer Run, Hamlet, NC 71.5 °F 70 °F 94% ESE  at  0.0 mph 0.00 in / hr 400 ft 3:37 AM EDT Normal

Show More Stations Show Fewer Stations